Time;durP1;ratioP1;P1;durP2;ratioP2;P2;SDS_P1;SDS_P2;PMS_P1;PMS_P2;Temp;Humidity;BMP_temperature;BMP_pressure;BME280_temperature;BME280_humidity;BME280_pressure;Samples;Min_cycle;Max_cycle;Signal;HPM_P1;HPM_P2
2022/03/14 00:01:37;;;;;;;14.38;10.93;;;8.70;73.90;;;;;;5048332;28;20021;-74
2022/03/14 00:04:03;;;;;;;17.23;11.65;;;8.80;72.90;;;;;;5035237;28;20052;-77
2022/03/14 00:06:29;;;;;;;17.80;12.98;;;8.80;72.90;;;;;;5031941;28;20018;-75
2022/03/14 00:08:57;;;;;;;15.82;11.90;;;8.80;73.60;;;;;;5029523;28;20039;-77
2022/03/14 00:11:23;;;;;;;15.52;11.60;;;8.80;72.80;;;;;;5034704;28;20033;-76
2022/03/14 00:13:50;;;;;;;14.25;11.45;;;8.80;73.00;;;;;;5045397;28;20025;-79
2022/03/14 00:16:23;;;;;;;16.45;11.20;;;8.80;73.50;;;;;;5048210;28;20452;-77
2022/03/14 00:18:50;;;;;;;14.35;10.63;;;8.70;73.70;;;;;;5048432;28;20079;-76
2022/03/14 00:21:23;;;;;;;15.35;11.23;;;8.70;73.90;;;;;;5033007;28;20025;-77
2022/03/14 00:23:51;;;;;;;16.02;10.25;;;8.70;74.10;;;;;;5023120;28;20018;-77
2022/03/14 00:26:17;;;;;;;14.85;10.55;;;8.70;74.30;;;;;;5048099;28;20026;-78
2022/03/14 00:28:43;;;;;;;15.80;10.45;;;8.70;74.20;;;;;;5029659;28;20403;-76
2022/03/14 00:31:08;;;;;;;13.43;11.00;;;8.80;74.30;;;;;;5033401;28;20021;-77
2022/03/14 00:33:36;;;;;;;17.70;11.20;;;8.70;74.70;;;;;;5033482;28;20026;-77
2022/03/14 00:36:02;;;;;;;17.17;11.05;;;8.70;74.70;;;;;;5032483;28;20542;-75
2022/03/14 00:38:28;;;;;;;15.05;11.02;;;8.70;74.90;;;;;;5031157;28;20105;-75
2022/03/14 00:40:54;;;;;;;12.68;10.63;;;8.80;72.70;;;;;;5032340;28;20036;-77
2022/03/14 00:43:19;;;;;;;13.25;9.82;;;9.00;70.00;;;;;;5033477;28;20025;-78
2022/03/14 00:45:45;;;;;;;14.85;11.25;;;9.20;69.00;;;;;;5044690;28;20029;-77
2022/03/14 00:48:10;;;;;;;12.68;10.30;;;9.30;68.70;;;;;;5032592;28;20056;-77
2022/03/14 00:50:36;;;;;;;13.82;11.10;;;9.40;68.20;;;;;;5026015;28;20105;-75
2022/03/14 00:53:02;;;;;;;13.00;11.20;;;9.40;68.40;;;;;;5024848;28;20038;-77
2022/03/14 00:55:28;;;;;;;12.25;10.82;;;9.40;68.70;;;;;;5032627;28;20021;-77
2022/03/14 00:57:54;;;;;;;14.20;10.90;;;9.30;69.20;;;;;;5031951;28;20017;-79
2022/03/14 01:00:19;;;;;;;14.00;10.88;;;9.30;69.90;;;;;;5033087;28;20025;-77
2022/03/14 01:02:50;;;;;;;15.60;11.98;;;9.30;70.50;;;;;;5028321;28;20108;-78
2022/03/14 01:05:19;;;;;;;19.73;10.95;;;9.20;72.20;;;;;;5052251;28;20028;-74
2022/03/14 01:07:45;;;;;;;14.02;11.60;;;9.20;72.70;;;;;;5055113;28;20080;-76
2022/03/14 01:10:10;;;;;;;15.68;11.90;;;9.10;72.80;;;;;;5056891;28;20037;-76
2022/03/14 01:12:36;;;;;;;15.18;11.23;;;9.10;73.30;;;;;;5048192;28;20033;-75
2022/03/14 01:15:03;;;;;;;16.98;10.80;;;9.10;73.60;;;;;;5056163;28;20048;-76
2022/03/14 01:17:29;;;;;;;15.65;10.57;;;9.10;73.80;;;;;;5056842;28;20014;-76
2022/03/14 01:19:54;;;;;;;14.65;11.18;;;9.10;74.20;;;;;;5055308;28;20052;-76
2022/03/14 01:22:20;;;;;;;16.45;12.65;;;9.20;74.60;;;;;;5052679;28;20037;-76
2022/03/14 01:24:46;;;;;;;17.23;12.73;;;9.30;76.00;;;;;;5051478;28;20010;-76
2022/03/14 01:27:11;;;;;;;20.75;12.82;;;9.60;77.40;;;;;;5057471;28;20099;-78
2022/03/14 01:29:38;;;;;;;22.80;14.63;;;9.90;79.70;;;;;;5033707;28;20090;-76
2022/03/14 01:32:07;;;;;;;19.13;12.15;;;10.00;80.00;;;;;;5029068;28;20033;-76
2022/03/14 01:34:33;;;;;;;19.15;13.95;;;10.10;81.30;;;;;;5055394;28;20052;-75
2022/03/14 01:36:59;;;;;;;17.10;13.65;;;10.10;82.10;;;;;;5051464;28;20022;-74
2022/03/14 01:39:25;;;;;;;17.33;13.98;;;10.10;84.20;;;;;;5053954;28;20043;-76
2022/03/14 01:41:51;;;;;;;19.35;11.82;;;10.20;85.90;;;;;;5051749;28;20089;-76
2022/03/14 01:44:17;;;;;;;15.15;12.85;;;10.20;89.10;;;;;;5056990;28;20025;-75
2022/03/14 01:46:43;;;;;;;18.85;14.65;;;10.20;90.80;;;;;;5072008;28;20017;-76
2022/03/14 01:49:11;;;;;;;16.17;13.82;;;10.20;91.90;;;;;;5050844;28;20033;-75
2022/03/14 01:51:39;;;;;;;16.17;14.15;;;10.20;92.90;;;;;;5037959;28;20103;-76
2022/03/14 01:54:05;;;;;;;17.27;14.20;;;10.10;94.20;;;;;;5029354;28;20025;-77
2022/03/14 01:56:31;;;;;;;19.08;14.05;;;10.10;95.20;;;;;;5029044;28;20032;-75
2022/03/14 01:58:57;;;;;;;18.05;14.45;;;10.10;96.60;;;;;;5026700;28;20303;-76
2022/03/14 02:01:23;;;;;;;14.82;13.25;;;10.10;98.30;;;;;;5023007;28;20029;-76
2022/03/14 02:03:50;;;;;;;16.50;12.77;;;10.10;99.80;;;;;;5025326;28;20026;-76
2022/03/14 02:06:17;;;;;;;14.00;12.35;;;10.20;99.90;;;;;;5029540;28;20051;-77
2022/03/14 02:08:43;;;;;;;16.05;12.98;;;10.20;99.90;;;;;;5028406;28;20035;-76
2022/03/14 02:11:08;;;;;;;14.45;13.05;;;10.10;99.90;;;;;;5030506;28;20101;-77
2022/03/14 02:13:34;;;;;;;20.00;12.90;;;10.10;99.90;;;;;;5030051;28;20083;-77
2022/03/14 02:15:59;;;;;;;14.82;13.07;;;10.10;99.90;;;;;;5030759;28;20021;-77
2022/03/14 02:18:25;;;;;;;16.27;13.70;;;10.10;99.90;;;;;;5032983;28;20149;-76
2022/03/14 02:20:51;;;;;;;14.75;13.25;;;10.10;99.90;;;;;;5025717;28;20110;-77
2022/03/14 02:23:17;;;;;;;13.98;12.57;;;10.10;99.90;;;;;;5029735;28;20029;-76
2022/03/14 02:25:53;;;;;;;15.60;13.10;;;10.10;99.90;;;;;;5024958;28;20087;-77
2022/03/14 02:28:20;;;;;;;20.15;13.95;;;10.00;99.90;;;;;;5016738;28;20030;-79
2022/03/14 02:30:46;;;;;;;17.65;12.77;;;10.00;99.90;;;;;;5031169;28;20022;-76
2022/03/14 02:33:11;;;;;;;14.35;12.85;;;9.90;99.90;;;;;;5026200;28;20033;-78
2022/03/14 02:35:42;;;;;;;14.32;12.82;;;9.90;99.90;;;;;;5025937;28;20021;-78
2022/03/14 02:38:14;;;;;;;15.13;13.30;;;9.90;99.90;;;;;;5027802;28;20116;-79
2022/03/14 02:40:41;;;;;;;13.45;12.05;;;9.90;99.90;;;;;;5024572;28;20107;-79
2022/03/14 02:43:07;;;;;;;14.95;13.35;;;9.80;99.90;;;;;;5026067;28;20461;-79
2022/03/14 02:45:33;;;;;;;16.13;14.43;;;9.80;99.90;;;;;;5030439;28;20136;-78
2022/03/14 02:48:00;;;;;;;16.73;13.52;;;9.80;99.90;;;;;;5026153;28;20029;-78
2022/03/14 02:50:26;;;;;;;16.05;14.35;;;9.90;99.90;;;;;;5026816;28;20120;-78
2022/03/14 02:52:52;;;;;;;17.55;14.38;;;9.80;99.90;;;;;;5031731;28;20494;-78
2022/03/14 02:55:21;;;;;;;15.40;13.35;;;9.90;99.90;;;;;;5037352;28;20117;-79
2022/03/14 02:57:46;;;;;;;16.10;14.38;;;9.80;99.90;;;;;;5020865;28;20014;-77
2022/03/14 03:00:13;;;;;;;15.40;13.75;;;9.80;99.90;;;;;;5023689;28;20486;-78
2022/03/14 03:02:39;;;;;;;15.68;13.88;;;9.90;99.90;;;;;;5030793;28;20026;-78
2022/03/14 03:05:06;;;;;;;16.63;14.93;;;9.90;99.90;;;;;;5025107;28;20041;-79
2022/03/14 03:07:32;;;;;;;18.73;14.52;;;9.80;99.90;;;;;;5025508;28;20022;-79
2022/03/14 03:09:57;;;;;;;18.92;14.90;;;9.80;99.90;;;;;;5030586;28;20072;-78
2022/03/14 03:12:25;;;;;;;18.80;16.17;;;9.70;99.90;;;;;;5029421;28;20033;-79
2022/03/14 03:14:51;;;;;;;17.75;15.32;;;9.70;99.90;;;;;;5031055;28;20049;-80
2022/03/14 03:17:16;;;;;;;17.92;14.68;;;9.60;99.90;;;;;;5029799;28;20418;-79
2022/03/14 03:19:42;;;;;;;23.55;14.02;;;9.60;99.90;;;;;;5039885;28;20026;-78
2022/03/14 03:22:08;;;;;;;17.63;14.00;;;9.90;99.90;;;;;;5047631;28;20026;-79
2022/03/14 03:24:33;;;;;;;18.05;14.30;;;9.90;99.90;;;;;;5023824;28;20084;-80
2022/03/14 03:26:59;;;;;;;17.60;15.07;;;9.70;99.90;;;;;;5034105;28;20034;-79
2022/03/14 03:29:25;;;;;;;20.38;15.65;;;9.60;99.90;;;;;;5031224;28;20021;-79
2022/03/14 03:31:50;;;;;;;16.52;14.63;;;9.50;99.90;;;;;;5034922;28;20030;-78
2022/03/14 03:34:16;;;;;;;17.92;14.98;;;9.40;99.90;;;;;;5034527;28;20504;-79
2022/03/14 03:36:42;;;;;;;15.95;14.27;;;9.30;99.90;;;;;;5034250;28;20029;-78
2022/03/14 03:39:07;;;;;;;16.73;14.23;;;9.30;99.90;;;;;;5032971;28;20453;-80
2022/03/14 03:41:33;;;;;;;16.48;13.73;;;9.30;99.90;;;;;;5033583;28;20025;-79
2022/03/14 03:43:59;;;;;;;15.13;13.50;;;9.30;99.90;;;;;;5047490;28;20029;-79
2022/03/14 03:46:24;;;;;;;15.98;13.00;;;9.30;99.90;;;;;;5034966;28;20025;-78
2022/03/14 03:48:50;;;;;;;12.05;10.68;;;9.20;99.90;;;;;;5032391;28;20026;-79
2022/03/14 03:51:15;;;;;;;9.18;8.23;;;9.20;99.90;;;;;;5035023;28;20078;-79
2022/03/14 03:53:41;;;;;;;8.00;7.20;;;9.50;99.90;;;;;;5047181;28;20026;-80
2022/03/14 03:56:06;;;;;;;9.25;6.68;;;9.60;99.90;;;;;;5028212;28;20034;-79
2022/03/14 03:58:32;;;;;;;10.13;6.97;;;9.60;99.90;;;;;;5032820;28;20076;-78
2022/03/14 04:00:57;;;;;;;7.00;6.30;;;9.40;99.90;;;;;;5033590;28;20056;-78
2022/03/14 04:03:23;;;;;;;9.38;6.53;;;9.30;99.90;;;;;;5033480;28;20521;-77
2022/03/14 04:05:50;;;;;;;8.70;6.05;;;9.20;99.90;;;;;;5045865;28;20047;-79
2022/03/14 04:08:16;;;;;;;6.90;5.32;;;9.50;99.90;;;;;;5047497;28;20474;-79
2022/03/14 04:10:43;;;;;;;8.77;5.15;;;9.30;99.90;;;;;;5028751;28;20053;-79
2022/03/14 04:13:13;;;;;;;4.72;4.28;;;9.20;99.90;;;;;;5034059;28;20512;-79
2022/03/14 04:15:52;;;;;;;4.55;4.13;;;9.40;99.90;;;;;;5029179;28;20037;-79
2022/03/14 04:18:25;;;;;;;4.18;3.60;;;9.50;99.90;;;;;;5032948;28;20036;-78
2022/03/14 04:20:52;;;;;;;3.95;3.53;;;9.20;99.90;;;;;;5032772;28;20032;-78
2022/03/14 04:23:19;;;;;;;3.72;3.13;;;9.10;99.90;;;;;;5048937;28;20030;-78
2022/03/14 04:25:45;;;;;;;2.78;2.47;;;9.30;99.90;;;;;;5019665;28;20486;-78
2022/03/14 04:28:12;;;;;;;2.92;2.60;;;9.40;99.90;;;;;;5044436;28;20036;-78
2022/03/14 04:30:38;;;;;;;3.20;2.65;;;9.20;99.90;;;;;;5033303;28;20037;-78
2022/03/14 04:33:03;;;;;;;3.53;3.20;;;9.00;99.90;;;;;;5032345;28;20048;-78
2022/03/14 04:35:29;;;;;;;5.22;2.80;;;8.90;99.90;;;;;;5034298;28;20033;-79
2022/03/14 04:37:55;;;;;;;4.45;3.40;;;8.80;99.90;;;;;;5031158;28;20599;-79
2022/03/14 04:40:21;;;;;;;4.05;3.55;;;8.70;99.90;;;;;;5030196;28;20030;-79
2022/03/14 04:42:46;;;;;;;3.83;3.38;;;8.60;99.90;;;;;;5030273;28;20040;-78
2022/03/14 04:45:12;;;;;;;4.00;3.60;;;8.60;99.90;;;;;;5031539;28;20108;-79
2022/03/14 04:47:38;;;;;;;3.88;3.40;;;8.60;99.90;;;;;;5047596;28;20522;-79
2022/03/14 04:50:04;;;;;;;3.40;3.10;;;8.60;99.90;;;;;;5032526;28;20860;-79
2022/03/14 04:52:30;;;;;;;3.80;3.50;;;8.60;99.90;;;;;;5030218;28;20029;-77
2022/03/14 04:54:56;;;;;;;4.53;4.00;;;8.70;99.90;;;;;;5031754;28;20539;-79
2022/03/14 04:57:23;;;;;;;6.05;4.60;;;8.70;99.90;;;;;;5031939;28;20034;-78
2022/03/14 04:59:48;;;;;;;5.90;4.57;;;8.70;99.90;;;;;;5032944;28;20464;-78
2022/03/14 05:02:19;;;;;;;4.93;4.43;;;8.70;99.90;;;;;;5032404;28;20029;-79
2022/03/14 05:04:45;;;;;;;4.90;4.13;;;8.80;99.90;;;;;;5047468;28;20552;-79
2022/03/14 05:07:10;;;;;;;4.03;3.63;;;8.80;99.90;;;;;;5031241;28;20105;-78
2022/03/14 05:09:36;;;;;;;4.25;3.65;;;8.80;99.90;;;;;;5047738;28;20061;-78
2022/03/14 05:12:01;;;;;;;3.80;3.50;;;8.80;99.90;;;;;;5023734;28;20099;-79
2022/03/14 05:14:27;;;;;;;3.88;3.47;;;8.70;99.90;;;;;;5045249;28;20627;-79
2022/03/14 05:16:52;;;;;;;5.53;4.90;;;8.70;99.90;;;;;;5038910;28;20028;-79
2022/03/14 05:19:18;;;;;;;4.47;3.92;;;8.70;99.90;;;;;;5031529;28;20032;-78
2022/03/14 05:21:43;;;;;;;4.68;3.80;;;8.70;99.90;;;;;;5029203;28;20021;-78
2022/03/14 05:24:09;;;;;;;3.75;3.40;;;8.70;99.90;;;;;;5024005;28;20486;-79
2022/03/14 05:26:35;;;;;;;3.38;3.08;;;8.60;99.90;;;;;;5032608;28;20139;-79
2022/03/14 05:29:00;;;;;;;6.60;3.05;;;8.60;99.90;;;;;;5047756;28;20029;-78
2022/03/14 05:31:26;;;;;;;3.85;2.67;;;8.60;99.90;;;;;;5028335;28;20033;-78
2022/03/14 05:33:51;;;;;;;3.80;2.95;;;8.70;99.90;;;;;;5032561;28;20030;-79
2022/03/14 05:36:17;;;;;;;2.65;2.45;;;8.70;99.90;;;;;;5031000;28;20026;-78
2022/03/14 05:38:44;;;;;;;3.15;2.65;;;8.70;99.90;;;;;;5031762;28;20018;-77
2022/03/14 05:41:09;;;;;;;2.75;1.85;;;8.60;99.90;;;;;;5046551;28;20037;-78
2022/03/14 05:43:37;;;;;;;2.33;1.10;;;8.60;99.90;;;;;;5032039;28;20028;-79
2022/03/14 05:46:09;;;;;;;1.75;1.58;;;8.60;99.90;;;;;;5040074;28;20137;-78
2022/03/14 05:48:35;;;;;;;1.70;1.60;;;8.60;99.90;;;;;;5025552;28;20032;-79
2022/03/14 05:51:03;;;;;;;1.65;1.55;;;8.60;99.90;;;;;;5023381;28;20037;-77
2022/03/14 05:53:30;;;;;;;1.40;0.95;;;8.50;99.90;;;;;;5031720;28;20029;-79
2022/03/14 05:55:56;;;;;;;1.15;0.90;;;8.50;99.90;;;;;;5030087;28;20120;-78
2022/03/14 05:58:22;;;;;;;1.52;0.90;;;8.50;99.90;;;;;;5030278;28;20048;-79
2022/03/14 06:00:48;;;;;;;2.25;0.80;;;8.50;99.90;;;;;;5049480;28;20021;-78
2022/03/14 06:03:15;;;;;;;1.10;1.00;;;8.50;99.90;;;;;;5044098;28;20033;-79
2022/03/14 06:05:40;;;;;;;1.63;0.80;;;8.50;99.90;;;;;;5028373;28;20509;-78
2022/03/14 06:08:06;;;;;;;0.85;0.85;;;8.50;99.90;;;;;;5029087;28;20018;-79
2022/03/14 06:10:32;;;;;;;0.73;0.73;;;8.50;99.90;;;;;;5032711;28;20423;-79
2022/03/14 06:12:59;;;;;;;0.70;0.68;;;8.50;99.90;;;;;;5031102;28;20402;-79
2022/03/14 06:15:24;;;;;;;0.88;0.70;;;8.50;99.90;;;;;;5030925;28;20151;-78
2022/03/14 06:17:50;;;;;;;1.08;0.80;;;8.50;99.90;;;;;;5030471;28;20092;-79
2022/03/14 06:20:15;;;;;;;0.68;0.60;;;8.50;99.90;;;;;;5031878;28;20037;-79
2022/03/14 06:22:44;;;;;;;1.23;0.70;;;8.50;99.90;;;;;;5027524;28;20034;-78
2022/03/14 06:25:10;;;;;;;2.95;0.75;;;8.50;99.90;;;;;;5029849;28;20144;-78
2022/03/14 06:27:35;;;;;;;0.95;0.85;;;8.50;99.90;;;;;;5043819;28;20022;-80
2022/03/14 06:30:02;;;;;;;1.75;0.75;;;8.50;99.90;;;;;;5041380;28;20060;-79
2022/03/14 06:32:36;;;;;;;0.93;0.70;;;8.50;99.90;;;;;;5034916;28;20040;-78
2022/03/14 06:35:03;;;;;;;4.40;1.65;;;8.40;99.90;;;;;;5046803;28;20025;-79
2022/03/14 06:37:29;;;;;;;1.65;1.00;;;8.50;99.90;;;;;;5052285;28;20488;-79
2022/03/14 06:39:54;;;;;;;1.80;1.67;;;8.60;99.90;;;;;;5025058;28;20045;-79
2022/03/14 06:42:20;;;;;;;0.98;0.80;;;8.60;99.90;;;;;;5033697;28;20025;-79
2022/03/14 06:44:49;;;;;;;2.70;1.17;;;8.90;99.90;;;;;;5042545;28;20045;-77
2022/03/14 06:47:17;;;;;;;1.63;0.63;;;8.90;99.90;;;;;;5028744;28;20087;-79
2022/03/14 06:49:44;;;;;;;1.15;0.77;;;8.70;99.90;;;;;;5030869;28;20468;-79
2022/03/14 06:52:12;;;;;;;4.32;0.80;;;8.70;99.90;;;;;;5047480;28;20132;-79
2022/03/14 06:54:38;;;;;;;2.70;0.77;;;8.70;99.90;;;;;;5036502;28;20076;-80
2022/03/14 06:57:05;;;;;;;2.05;1.00;;;8.60;99.90;;;;;;5030481;28;20029;-79
2022/03/14 06:59:30;;;;;;;0.85;0.52;;;8.70;99.90;;;;;;5031657;28;20428;-79
2022/03/14 07:01:56;;;;;;;1.20;0.80;;;8.70;99.90;;;;;;5037453;28;20033;-79
2022/03/14 07:04:21;;;;;;;4.35;0.95;;;8.70;99.90;;;;;;5031411;28;20021;-79
2022/03/14 07:06:47;;;;;;;2.72;0.80;;;8.60;99.90;;;;;;5038177;28;20083;-79
2022/03/14 07:09:12;;;;;;;1.73;0.77;;;8.70;99.90;;;;;;5037256;28;20112;-78
2022/03/14 07:11:38;;;;;;;0.82;0.80;;;8.70;99.90;;;;;;5030935;28;20076;-79
2022/03/14 07:14:04;;;;;;;1.20;0.80;;;8.80;99.90;;;;;;5035706;28;20025;-78
2022/03/14 07:16:29;;;;;;;1.33;1.08;;;8.80;99.90;;;;;;5032843;28;20033;-77
2022/03/14 07:18:55;;;;;;;2.50;0.75;;;8.90;99.90;;;;;;5049691;28;20031;-79
2022/03/14 07:21:22;;;;;;;3.72;1.65;;;9.00;99.90;;;;;;5032714;28;20057;-78
2022/03/14 07:23:47;;;;;;;2.53;0.63;;;9.10;99.90;;;;;;5049461;28;20021;-78
2022/03/14 07:26:14;;;;;;;3.00;0.60;;;9.20;99.90;;;;;;5034302;28;20144;-78
2022/03/14 07:28:40;;;;;;;1.85;0.65;;;9.30;99.90;;;;;;5029322;28;20502;-78
2022/03/14 07:31:05;;;;;;;2.60;1.25;;;9.40;99.90;;;;;;5034201;28;20029;-81
2022/03/14 07:33:31;;;;;;;1.50;0.60;;;9.40;99.90;;;;;;5043208;28;20041;-79
2022/03/14 07:35:57;;;;;;;2.05;0.70;;;9.50;99.90;;;;;;5033513;28;20026;-79
2022/03/14 07:38:23;;;;;;;3.45;0.50;;;9.70;99.90;;;;;;5032188;28;20029;-78
2022/03/14 07:40:48;;;;;;;1.92;0.65;;;9.60;99.90;;;;;;5031836;28;20038;-77
2022/03/14 07:43:14;;;;;;;1.88;0.90;;;9.70;99.90;;;;;;5032262;28;20045;-77
2022/03/14 07:45:39;;;;;;;5.70;1.45;;;9.70;99.90;;;;;;5021268;28;20140;-79
2022/03/14 07:48:05;;;;;;;2.78;0.73;;;9.80;99.90;;;;;;5034054;28;20030;-80
2022/03/14 07:50:31;;;;;;;1.27;0.50;;;9.90;99.90;;;;;;5049972;28;20029;-78
2022/03/14 07:52:57;;;;;;;1.42;0.80;;;10.10;99.90;;;;;;5033758;28;20030;-78
2022/03/14 07:55:23;;;;;;;4.57;1.77;;;10.00;99.90;;;;;;5046280;28;20034;-78
2022/03/14 07:57:49;;;;;;;1.83;0.70;;;10.00;99.90;;;;;;5043670;28;20057;-77
2022/03/14 08:00:18;;;;;;;1.50;0.68;;;10.20;99.90;;;;;;5035002;28;20300;-77
2022/03/14 08:02:45;;;;;;;2.60;0.80;;;10.10;99.90;;;;;;5048168;28;20172;-78
2022/03/14 08:05:14;;;;;;;4.07;0.80;;;10.20;99.90;;;;;;5051031;28;20033;-78
2022/03/14 08:07:44;;;;;;;0.93;0.60;;;10.40;99.90;;;;;;5048382;28;20021;-79
2022/03/14 08:10:11;;;;;;;3.83;0.80;;;10.50;99.90;;;;;;5033017;28;20496;-79
2022/03/14 08:12:49;;;;;;;1.08;0.50;;;10.70;99.90;;;;;;5034083;28;20025;-79
2022/03/14 08:15:24;;;;;;;1.52;0.60;;;10.70;99.90;;;;;;5030075;28;20022;-79
2022/03/14 08:17:52;;;;;;;3.45;0.65;;;10.80;99.90;;;;;;5041308;28;20025;-78
2022/03/14 08:20:19;;;;;;;3.05;0.55;;;10.70;99.90;;;;;;5030235;28;20071;-78
2022/03/14 08:22:45;;;;;;;3.40;0.70;;;10.90;99.90;;;;;;5028758;28;20029;-79
2022/03/14 08:25:11;;;;;;;3.90;0.70;;;11.00;99.90;;;;;;5051677;28;20485;-80
2022/03/14 08:27:38;;;;;;;1.83;0.52;;;11.00;99.90;;;;;;5035447;28;20029;-79
2022/03/14 08:30:04;;;;;;;2.65;0.60;;;11.10;99.90;;;;;;5035195;28;20523;-81
2022/03/14 08:32:32;;;;;;;2.35;0.70;;;11.40;99.90;;;;;;5028401;28;20071;-80
2022/03/14 08:34:57;;;;;;;3.03;0.63;;;11.40;99.90;;;;;;5038127;28;20406;-79
2022/03/14 08:37:23;;;;;;;4.22;1.13;;;11.70;99.90;;;;;;5033893;28;20034;-78
2022/03/14 08:39:49;;;;;;;1.55;0.50;;;11.60;99.90;;;;;;5036600;28;20018;-78
2022/03/14 08:42:16;;;;;;;3.95;0.63;;;11.50;99.90;;;;;;5036715;28;20118;-78
2022/03/14 08:44:41;;;;;;;4.57;0.80;;;11.40;99.90;;;;;;5022021;28;20022;-79
2022/03/14 08:47:07;;;;;;;5.43;1.10;;;11.40;99.90;;;;;;5031612;28;20025;-76
2022/03/14 08:49:34;;;;;;;3.20;0.85;;;11.60;99.90;;;;;;5047900;28;20113;-74
2022/03/14 08:52:00;;;;;;;3.00;0.70;;;11.80;99.90;;;;;;5040615;28;20369;-75
2022/03/14 08:54:26;;;;;;;2.33;0.65;;;11.70;99.90;;;;;;5026594;28;20034;-74
2022/03/14 08:56:52;;;;;;;3.28;1.02;;;11.90;99.90;;;;;;5047589;28;20017;-76
2022/03/14 08:59:17;;;;;;;3.83;0.70;;;11.80;99.90;;;;;;5031228;28;20886;-76
2022/03/14 09:01:43;;;;;;;3.40;0.80;;;11.70;99.90;;;;;;5025655;28;20022;-75
2022/03/14 09:04:08;;;;;;;2.03;0.65;;;11.80;99.90;;;;;;5031266;28;20597;-76
2022/03/14 09:06:35;;;;;;;2.83;0.70;;;11.50;99.90;;;;;;5026006;28;20030;-76
2022/03/14 09:09:01;;;;;;;1.63;0.60;;;11.50;99.90;;;;;;5034317;28;20022;-75
2022/03/14 09:11:27;;;;;;;5.22;1.13;;;11.50;99.90;;;;;;5032971;28;20032;-74
2022/03/14 09:13:52;;;;;;;1.95;0.70;;;11.50;99.90;;;;;;5025562;28;20541;-74
2022/03/14 09:16:19;;;;;;;7.72;0.82;;;11.50;99.90;;;;;;5031205;28;20033;-75
2022/03/14 09:18:45;;;;;;;1.30;0.60;;;11.60;99.90;;;;;;5023306;28;20034;-75
2022/03/14 09:21:12;;;;;;;2.03;0.80;;;11.80;99.90;;;;;;5032678;28;20036;-74
2022/03/14 09:23:38;;;;;;;3.72;1.00;;;12.10;99.90;;;;;;5046758;28;20099;-75
2022/03/14 09:26:04;;;;;;;3.67;0.80;;;12.60;99.20;;;;;;5024047;28;20033;-77
2022/03/14 09:28:29;;;;;;;2.00;0.85;;;12.70;99.00;;;;;;5043011;28;20036;-75
2022/03/14 09:30:56;;;;;;;3.22;0.60;;;12.10;99.10;;;;;;5031528;28;20033;-75
2022/03/14 09:33:21;;;;;;;5.28;1.05;;;12.00;99.10;;;;;;5028257;28;20021;-77
2022/03/14 09:35:47;;;;;;;5.03;1.00;;;11.90;99.30;;;;;;5026419;28;20087;-75
2022/03/14 09:38:15;;;;;;;3.97;1.30;;;12.00;99.20;;;;;;5046743;28;20029;-75
2022/03/14 09:40:43;;;;;;;3.20;0.63;;;12.00;99.00;;;;;;5032956;28;20126;-75
2022/03/14 09:43:09;;;;;;;4.97;0.85;;;12.10;99.10;;;;;;5031653;28;20030;-76
2022/03/14 09:45:35;;;;;;;3.22;1.02;;;12.30;99.00;;;;;;5025384;28;20022;-76
2022/03/14 09:48:03;;;;;;;2.65;0.93;;;12.30;99.00;;;;;;5041929;28;20080;-76
2022/03/14 09:50:38;;;;;;;3.72;0.93;;;12.10;98.60;;;;;;5030925;28;20025;-76
2022/03/14 09:53:06;;;;;;;5.40;1.75;;;12.20;98.90;;;;;;5032021;28;20036;-76
2022/03/14 09:55:38;;;;;;;3.60;0.90;;;12.20;98.20;;;;;;5046413;28;20049;-76
2022/03/14 09:58:03;;;;;;;3.85;0.95;;;12.20;98.20;;;;;;5032092;28;20032;-75
2022/03/14 10:00:30;;;;;;;2.90;0.80;;;12.30;97.70;;;;;;5045367;28;20033;-75
2022/03/14 10:02:56;;;;;;;9.73;1.48;;;12.40;97.40;;;;;;5031508;28;20034;-76
2022/03/14 10:05:22;;;;;;;3.53;1.40;;;12.60;97.20;;;;;;5027488;28;20036;-76
2022/03/14 10:07:47;;;;;;;1.85;0.75;;;12.60;96.10;;;;;;5030902;28;20103;-76
2022/03/14 10:10:14;;;;;;;2.35;0.82;;;12.60;96.00;;;;;;5028613;28;20553;-75
2022/03/14 10:12:42;;;;;;;2.92;0.70;;;12.80;95.70;;;;;;5031489;28;20035;-76
2022/03/14 10:15:09;;;;;;;4.65;0.98;;;12.60;95.60;;;;;;5047687;28;20025;-77
2022/03/14 10:17:35;;;;;;;2.67;1.00;;;12.60;95.70;;;;;;5031597;28;20083;-75
2022/03/14 10:20:06;;;;;;;3.63;1.05;;;12.60;95.50;;;;;;5029859;28;20028;-76
2022/03/14 10:22:39;;;;;;;;;;;12.90;95.00;;;;;;5021127;28;20116;-75
2022/03/14 10:25:09;;;;;;;2.35;0.82;;;12.90;94.90;;;;;;5042503;28;19909;-76
2022/03/14 10:27:37;;;;;;;4.00;0.90;;;12.90;94.30;;;;;;5032745;28;20474;-76
2022/03/14 10:30:04;;;;;;;4.40;0.90;;;13.20;94.20;;;;;;5027521;28;20112;-76
2022/03/14 10:32:30;;;;;;;2.83;0.98;;;13.60;93.60;;;;;;5033868;28;20485;-75
2022/03/14 10:34:59;;;;;;;3.08;0.80;;;13.70;92.60;;;;;;5031876;28;20083;-75
2022/03/14 10:37:27;;;;;;;3.33;1.13;;;14.00;92.30;;;;;;5031687;28;20030;-77
2022/03/14 10:40:05;;;;;;;3.97;0.90;;;14.10;91.90;;;;;;5030525;28;20083;-76
2022/03/14 10:42:41;;;;;;;2.95;0.80;;;14.30;91.70;;;;;;5051558;28;20033;-75
2022/03/14 10:45:29;;;;;;;2.38;0.68;;;14.20;91.30;;;;;;5047227;28;20037;-76
2022/03/14 10:47:57;;;;;;;3.10;0.73;;;14.10;90.60;;;;;;5032138;28;20033;-75
2022/03/14 10:50:36;;;;;;;4.90;1.17;;;13.70;90.90;;;;;;5048034;28;20033;-76
2022/03/14 10:53:12;;;;;;;3.92;0.70;;;13.50;90.80;;;;;;5027922;28;20057;-75
2022/03/14 10:55:45;;;;;;;4.53;0.90;;;13.60;90.60;;;;;;5030488;28;20084;-75
2022/03/14 10:58:19;;;;;;;2.00;0.85;;;13.80;90.40;;;;;;5031135;28;20022;-75
2022/03/14 11:00:54;;;;;;;3.33;0.82;;;13.90;89.20;;;;;;5048297;28;20030;-75
2022/03/14 11:03:31;;;;;;;1.25;1.13;;;14.00;89.40;;;;;;5033607;28;20025;-76
2022/03/14 11:06:00;;;;;;;1.40;0.68;;;14.40;88.50;;;;;;5033466;28;20025;-76
2022/03/14 11:08:36;;;;;;;4.65;0.80;;;14.50;87.10;;;;;;5031482;28;20722;-75
2022/03/14 11:11:07;;;;;;;4.00;0.77;;;14.50;86.10;;;;;;5033151;28;20099;-76
2022/03/14 11:13:41;;;;;;;2.95;1.02;;;14.60;86.70;;;;;;5030191;28;20037;-76
2022/03/14 11:16:34;;;;;;;2.20;0.60;;;14.70;85.30;;;;;;5047033;28;20083;-76
2022/03/14 11:18:59;;;;;;;3.45;0.88;;;15.10;84.60;;;;;;5049845;28;20477;-75
2022/03/14 11:21:26;;;;;;;3.38;0.60;;;14.90;84.40;;;;;;5031966;28;20029;-77
2022/03/14 11:23:54;;;;;;;2.92;0.75;;;15.10;83.60;;;;;;5035289;28;20481;-76
2022/03/14 11:26:24;;;;;;;1.88;0.80;;;15.20;83.20;;;;;;5049505;28;20057;-76
2022/03/14 11:28:52;;;;;;;5.28;0.80;;;15.40;82.90;;;;;;5049605;28;20025;-74
2022/03/14 11:31:19;;;;;;;2.78;0.70;;;15.60;81.30;;;;;;5031806;28;20025;-76
2022/03/14 11:33:46;;;;;;;2.15;0.90;;;15.30;81.20;;;;;;5020660;28;20103;-75
2022/03/14 11:36:13;;;;;;;2.22;0.70;;;15.40;81.70;;;;;;5034738;28;20389;-75
2022/03/14 11:38:39;;;;;;;2.55;0.60;;;15.30;80.40;;;;;;5034635;28;20032;-76
2022/03/14 11:41:05;;;;;;;2.50;0.98;;;14.70;79.80;;;;;;5034272;28;20481;-75
2022/03/14 11:43:30;;;;;;;4.47;0.80;;;14.60;81.70;;;;;;5032126;28;20153;-75
2022/03/14 11:46:00;;;;;;;2.15;0.95;;;15.00;81.70;;;;;;5034058;28;20100;-75
2022/03/14 11:48:31;;;;;;;2.00;0.60;;;15.60;81.10;;;;;;5047574;28;20120;-75
2022/03/14 11:50:57;;;;;;;3.05;0.50;;;15.40;79.50;;;;;;5032927;28;20029;-76
2022/03/14 11:53:28;;;;;;;1.45;0.73;;;15.50;79.70;;;;;;5030353;28;20107;-76
2022/03/14 11:55:55;;;;;;;;;;;15.40;79.80;;;;;;5044563;28;20520;-76
2022/03/14 11:58:34;;;;;;;4.50;0.70;;;15.50;79.40;;;;;;5033047;28;19917;-75
2022/03/14 12:01:30;;;;;;;2.72;1.13;;;15.70;78.70;;;;;;5030209;28;20021;-76
2022/03/14 12:04:00;;;;;;;2.35;0.70;;;15.50;78.60;;;;;;5030277;28;20083;-76
2022/03/14 12:06:45;;;;;;;2.47;1.05;;;15.10;80.30;;;;;;5042290;28;20037;-77
2022/03/14 12:09:10;;;;;;;2.83;1.00;;;14.60;79.00;;;;;;5026705;28;20037;-76
2022/03/14 12:11:41;;;;;;;3.17;0.80;;;14.60;80.20;;;;;;5036700;28;20513;-77
2022/03/14 12:14:11;;;;;;;;;;;15.00;80.60;;;;;;5034019;28;20025;-76
2022/03/14 12:16:42;;;;;;;1.65;0.50;;;15.00;78.80;;;;;;5029953;28;19977;-75
2022/03/14 12:19:29;;;;;;;2.53;0.82;;;15.10;78.20;;;;;;5033511;28;20080;-76
2022/03/14 12:21:55;;;;;;;1.20;0.55;;;14.90;77.30;;;;;;5026897;28;20100;-76
2022/03/14 12:24:42;;;;;;;4.20;0.90;;;14.80;78.60;;;;;;5033483;28;20029;-74
2022/03/14 12:27:16;;;;;;;2.55;0.90;;;14.50;78.70;;;;;;5032672;28;20116;-75
2022/03/14 12:29:43;;;;;;;2.83;0.90;;;14.10;79.80;;;;;;5031956;28;20421;-75
2022/03/14 12:32:39;;;;;;;2.05;1.25;;;14.10;80.50;;;;;;5033188;28;20072;-76
2022/03/14 12:35:17;;;;;;;3.05;0.85;;;14.00;80.90;;;;;;5022130;28;20041;-75
2022/03/14 12:37:44;;;;;;;2.20;0.75;;;14.20;80.70;;;;;;5034277;28;20030;-75
2022/03/14 12:40:19;;;;;;;3.85;0.73;;;14.70;81.10;;;;;;5031036;28;20036;-76
2022/03/14 12:42:48;;;;;;;3.63;0.57;;;14.80;78.90;;;;;;5026490;28;20047;-76
2022/03/14 12:45:22;;;;;;;2.42;0.70;;;15.00;78.70;;;;;;5033178;28;20104;-76
2022/03/14 12:47:57;;;;;;;3.28;0.60;;;15.00;78.30;;;;;;5033642;28;20021;-76
2022/03/14 12:50:45;;;;;;;0.70;0.40;;;14.80;78.20;;;;;;5032695;28;20041;-76